Hlavní strana
METAR-TAF:

METAR-TAF

Letiště :

St. Gallen, Švýcarsko

zeměpisná šířka: 47-29-06N, zeměpisná délka: 009-33-43E, výška: 398 m

Aktuální stav počasí

Zpráva byla vytvořena před 18 minutami, v 04:20 UTC
vítr z různých směrů 2 kt
Teplota 1°C
Vlhkost vzduchu 100%
Tlak 1006 hPa
Viditelnost 10 km a více

METAR: LSZR 180420Z AUTO VRB02KT 9999 NSC 01/01 Q1006

Čas: 05:38 (04:38 UTC)

Předpověď počasí

Zpráva byla vytvořena před 14 hodinami a 13 minutami, v 14:25 UTC
Předpověď platná od 17 v 15 UTC do 17 v 24 UTC
Západní vítr 4 kt
Viditelnost 10 km a více
Oblačno až skoro zataženo ve výšce 2000 ft
Pravděpodobnost 40% :
Dočasný
od 17 v 15 UTC do 17 v 17 UTC
Viditelnost: 4500 m
Oblačno až skoro zataženo ve výšce 1200 ft
déšť

TAF: LSZR 171425Z 1715/1724 27004KT 9999 BKN020 PROB40 TEMPO 1715/1717 4500 RA BKN012

Stav a předpovědi počasí z více než 4 000 letišť (zprávy METAR a TAF).

Červené a žluté tečky na mapě představují dostupné meteorologické stanice.

Když kurzor umístíte na tečku, zobrazí se název stanice.

Pak kliknutím zobrazíte stav a předpověď počasí.

Chcete-li změnit mapu, kliknutím na zelené tlačítko se znaménkem +mapu přiblížíte, kliknutím na zelené tlačítko se znaménkem – mapu oddálíte a kliknutím na zelené šipky přejdete na sousední mapy.


METAR-TAF: